sensor_id;sensor_type;location;lat;lon;timestamp;pressure;altitude;pressure_sealevel;temperature;humidity
64933;BME280;51446;53.850;10.662;2023-04-22T00:00:42;101408.75;;;8.45;90.73
64933;BME280;51446;53.850;10.662;2023-04-22T00:03:07;101398.22;;;8.19;95.45
64933;BME280;51446;53.850;10.662;2023-04-22T00:05:33;101400.50;;;8.10;95.96
64933;BME280;51446;53.850;10.662;2023-04-22T00:07:58;101401.56;;;8.15;96.20
64933;BME280;51446;53.850;10.662;2023-04-22T00:10:23;101397.91;;;8.10;98.11
64933;BME280;51446;53.850;10.662;2023-04-22T00:12:48;101387.47;;;8.10;97.22
64933;BME280;51446;53.850;10.662;2023-04-22T00:15:14;101382.22;;;8.10;98.69
64933;BME280;51446;53.850;10.662;2023-04-22T00:17:39;101377.41;;;8.22;96.94
64933;BME280;51446;53.850;10.662;2023-04-22T00:20:05;101377.59;;;8.27;96.68
64933;BME280;51446;53.850;10.662;2023-04-22T00:22:31;101374.03;;;8.25;96.35
64933;BME280;51446;53.850;10.662;2023-04-22T00:24:57;101364.50;;;8.01;100.00
64933;BME280;51446;53.850;10.662;2023-04-22T00:27:22;101360.41;;;8.09;100.00
64933;BME280;51446;53.850;10.662;2023-04-22T00:29:47;101358.63;;;8.07;100.00
64933;BME280;51446;53.850;10.662;2023-04-22T00:32:12;101351.41;;;7.99;100.00
64933;BME280;51446;53.850;10.662;2023-04-22T00:34:38;101351.88;;;7.89;100.00
64933;BME280;51446;53.850;10.662;2023-04-22T00:37:03;101343.81;;;7.83;100.00
64933;BME280;51446;53.850;10.662;2023-04-22T00:39:28;101334.50;;;7.90;100.00
64933;BME280;51446;53.850;10.662;2023-04-22T00:41:54;101333.69;;;7.91;100.00
64933;BME280;51446;53.850;10.662;2023-04-22T00:44:19;101334.22;;;7.82;100.00
64933;BME280;51446;53.850;10.662;2023-04-22T00:46:46;101333.50;;;7.86;100.00
64933;BME280;51446;53.850;10.662;2023-04-22T00:49:13;101328.22;;;7.85;100.00
64933;BME280;51446;53.850;10.662;2023-04-22T00:51:40;101330.72;;;7.81;100.00
64933;BME280;51446;53.850;10.662;2023-04-22T00:54:05;101327.94;;;7.77;100.00
64933;BME280;51446;53.850;10.662;2023-04-22T00:56:32;101327.19;;;7.79;100.00
64933;BME280;51446;53.850;10.662;2023-04-22T00:59:00;101326.16;;;7.76;100.00
64933;BME280;51446;53.850;10.662;2023-04-22T01:01:25;101324.00;;;7.64;100.00
64933;BME280;51446;53.850;10.662;2023-04-22T01:03:50;101322.31;;;7.66;100.00
64933;BME280;51446;53.850;10.662;2023-04-22T01:06:18;101321.78;;;7.75;100.00
64933;BME280;51446;53.850;10.662;2023-04-22T01:08:44;101316.44;;;7.72;100.00
64933;BME280;51446;53.850;10.662;2023-04-22T01:11:10;101306.66;;;7.66;100.00
64933;BME280;51446;53.850;10.662;2023-04-22T01:13:35;101316.06;;;7.61;100.00
64933;BME280;51446;53.850;10.662;2023-04-22T01:16:03;101307.94;;;7.53;100.00
64933;BME280;51446;53.850;10.662;2023-04-22T01:18:31;101310.50;;;7.52;100.00
64933;BME280;51446;53.850;10.662;2023-04-22T01:20:56;101310.31;;;7.47;100.00
64933;BME280;51446;53.850;10.662;2023-04-22T01:23:22;101307.88;;;7.52;100.00
64933;BME280;51446;53.850;10.662;2023-04-22T01:25:48;101301.84;;;7.53;100.00
64933;BME280;51446;53.850;10.662;2023-04-22T01:28:15;101301.91;;;7.54;100.00
64933;BME280;51446;53.850;10.662;2023-04-22T01:30:41;101301.56;;;7.45;100.00
64933;BME280;51446;53.850;10.662;2023-04-22T01:33:08;101294.44;;;7.41;100.00
64933;BME280;51446;53.850;10.662;2023-04-22T01:35:33;101292.47;;;7.58;100.00
64933;BME280;51446;53.850;10.662;2023-04-22T01:38:05;101290.94;;;7.40;100.00
64933;BME280;51446;53.850;10.662;2023-04-22T01:40:31;101287.19;;;7.32;100.00
64933;BME280;51446;53.850;10.662;2023-04-22T01:42:58;101288.09;;;7.34;100.00
64933;BME280;51446;53.850;10.662;2023-04-22T01:45:24;101286.88;;;7.24;100.00
64933;BME280;51446;53.850;10.662;2023-04-22T01:47:50;101285.78;;;7.18;100.00
64933;BME280;51446;53.850;10.662;2023-04-22T01:50:15;101282.31;;;7.19;100.00
64933;BME280;51446;53.850;10.662;2023-04-22T01:52:40;101283.75;;;7.10;100.00
64933;BME280;51446;53.850;10.662;2023-04-22T01:55:07;101290.38;;;7.02;100.00
64933;BME280;51446;53.850;10.662;2023-04-22T01:57:32;101284.47;;;7.06;100.00
64933;BME280;51446;53.850;10.662;2023-04-22T01:59:57;101285.94;;;7.00;100.00
64933;BME280;51446;53.850;10.662;2023-04-22T02:02:22;101281.75;;;7.03;100.00
64933;BME280;51446;53.850;10.662;2023-04-22T02:04:48;101281.56;;;6.99;100.00
64933;BME280;51446;53.850;10.662;2023-04-22T02:07:13;101276.16;;;6.94;100.00
64933;BME280;51446;53.850;10.662;2023-04-22T02:09:38;101279.47;;;6.90;100.00
64933;BME280;51446;53.850;10.662;2023-04-22T02:12:04;101275.06;;;6.87;100.00
64933;BME280;51446;53.850;10.662;2023-04-22T02:14:29;101272.25;;;6.83;100.00
64933;BME280;51446;53.850;10.662;2023-04-22T02:16:54;101274.84;;;6.83;100.00
64933;BME280;51446;53.850;10.662;2023-04-22T02:19:20;101273.03;;;6.80;100.00
64933;BME280;51446;53.850;10.662;2023-04-22T02:21:45;101265.28;;;6.82;100.00
64933;BME280;51446;53.850;10.662;2023-04-22T02:24:10;101267.13;;;6.84;100.00
64933;BME280;51446;53.850;10.662;2023-04-22T02:26:36;101272.34;;;6.84;100.00
64933;BME280;51446;53.850;10.662;2023-04-22T02:29:01;101268.28;;;6.92;100.00
64933;BME280;51446;53.850;10.662;2023-04-22T02:31:26;101265.63;;;6.91;100.00
64933;BME280;51446;53.850;10.662;2023-04-22T02:33:51;101260.53;;;6.71;100.00
64933;BME280;51446;53.850;10.662;2023-04-22T02:36:17;101247.44;;;6.70;100.00
64933;BME280;51446;53.850;10.662;2023-04-22T02:38:42;101245.91;;;6.54;100.00
64933;BME280;51446;53.850;10.662;2023-04-22T02:41:07;101245.44;;;6.63;100.00
64933;BME280;51446;53.850;10.662;2023-04-22T02:43:32;101252.38;;;6.64;100.00
64933;BME280;51446;53.850;10.662;2023-04-22T02:45:58;101250.69;;;6.64;100.00
64933;BME280;51446;53.850;10.662;2023-04-22T02:48:23;101256.84;;;6.66;100.00
64933;BME280;51446;53.850;10.662;2023-04-22T02:50:48;101241.84;;;6.60;100.00
64933;BME280;51446;53.850;10.662;2023-04-22T02:53:13;101237.34;;;6.56;100.00
64933;BME280;51446;53.850;10.662;2023-04-22T02:55:40;101243.69;;;6.63;100.00
64933;BME280;51446;53.850;10.662;2023-04-22T02:58:05;101235.56;;;6.55;100.00
64933;BME280;51446;53.850;10.662;2023-04-22T03:00:31;101235.06;;;6.64;100.00
64933;BME280;51446;53.850;10.662;2023-04-22T03:02:56;101228.94;;;6.64;100.00
64933;BME280;51446;53.850;10.662;2023-04-22T03:05:21;101229.91;;;6.66;100.00
64933;BME280;51446;53.850;10.662;2023-04-22T03:07:46;101220.19;;;6.84;100.00
64933;BME280;51446;53.850;10.662;2023-04-22T03:10:13;101223.03;;;6.68;100.00
64933;BME280;51446;53.850;10.662;2023-04-22T03:12:38;101222.44;;;6.75;100.00
64933;BME280;51446;53.850;10.662;2023-04-22T03:15:04;101213.91;;;6.79;100.00
64933;BME280;51446;53.850;10.662;2023-04-22T03:17:30;101211.06;;;6.73;100.00
64933;BME280;51446;53.850;10.662;2023-04-22T03:19:55;101200.22;;;6.85;100.00
64933;BME280;51446;53.850;10.662;2023-04-22T03:22:20;101201.63;;;6.76;100.00
64933;BME280;51446;53.850;10.662;2023-04-22T03:24:46;101197.44;;;6.80;100.00
64933;BME280;51446;53.850;10.662;2023-04-22T03:27:11;101201.63;;;6.99;100.00
64933;BME280;51446;53.850;10.662;2023-04-22T03:29:36;101200.38;;;6.89;100.00
64933;BME280;51446;53.850;10.662;2023-04-22T03:32:01;101200.53;;;6.94;100.00
64933;BME280;51446;53.850;10.662;2023-04-22T03:34:27;101199.88;;;7.00;100.00
64933;BME280;51446;53.850;10.662;2023-04-22T03:36:52;101187.97;;;7.06;100.00
64933;BME280;51446;53.850;10.662;2023-04-22T03:39:17;101192.31;;;7.06;100.00
64933;BME280;51446;53.850;10.662;2023-04-22T03:41:42;101180.88;;;7.02;100.00
64933;BME280;51446;53.850;10.662;2023-04-22T03:44:08;101184.88;;;7.17;100.00
64933;BME280;51446;53.850;10.662;2023-04-22T03:46:33;101180.97;;;7.05;100.00
64933;BME280;51446;53.850;10.662;2023-04-22T03:48:58;101174.47;;;6.94;100.00
64933;BME280;51446;53.850;10.662;2023-04-22T03:51:23;101164.16;;;6.97;100.00
64933;BME280;51446;53.850;10.662;2023-04-22T03:53:49;101163.81;;;6.88;100.00
64933;BME280;51446;53.850;10.662;2023-04-22T03:56:14;101154.16;;;6.85;100.00
64933;BME280;51446;53.850;10.662;2023-04-22T03:58:39;101154.72;;;6.76;100.00
64933;BME280;51446;53.850;10.662;2023-04-22T04:01:05;101154.66;;;6.75;100.00
64933;BME280;51446;53.850;10.662;2023-04-22T04:03:30;101153.34;;;7.10;100.00
64933;BME280;51446;53.850;10.662;2023-04-22T04:05:56;101147.78;;;7.01;100.00
64933;BME280;51446;53.850;10.662;2023-04-22T04:08:21;101146.25;;;7.31;100.00
64933;BME280;51446;53.850;10.662;2023-04-22T04:10:46;101144.66;;;7.36;100.00
64933;BME280;51446;53.850;10.662;2023-04-22T04:13:11;101141.53;;;7.20;100.00
64933;BME280;51446;53.850;10.662;2023-04-22T04:15:37;101142.47;;;7.22;100.00
64933;BME280;51446;53.850;10.662;2023-04-22T04:18:03;101143.84;;;7.37;100.00
64933;BME280;51446;53.850;10.662;2023-04-22T04:20:28;101139.13;;;7.26;100.00
64933;BME280;51446;53.850;10.662;2023-04-22T04:22:53;101137.53;;;7.56;100.00
64933;BME280;51446;53.850;10.662;2023-04-22T04:25:19;101131.47;;;7.57;100.00
64933;BME280;51446;53.850;10.662;2023-04-22T04:27:45;101126.16;;;7.54;100.00
64933;BME280;51446;53.850;10.662;2023-04-22T04:30:11;101137.84;;;7.65;100.00
64933;BME280;51446;53.850;10.662;2023-04-22T04:32:37;101137.47;;;7.80;100.00
64933;BME280;51446;53.850;10.662;2023-04-22T04:35:02;101139.31;;;8.10;100.00
64933;BME280;51446;53.850;10.662;2023-04-22T04:37:28;101134.50;;;8.24;100.00
64933;BME280;51446;53.850;10.662;2023-04-22T04:39:54;101133.31;;;8.41;100.00
64933;BME280;51446;53.850;10.662;2023-04-22T04:42:19;101136.50;;;8.32;100.00
64933;BME280;51446;53.850;10.662;2023-04-22T04:44:44;101133.53;;;8.47;100.00
64933;BME280;51446;53.850;10.662;2023-04-22T04:47:11;101133.66;;;8.52;100.00
64933;BME280;51446;53.850;10.662;2023-04-22T04:49:37;101128.88;;;8.67;100.00
64933;BME280;51446;53.850;10.662;2023-04-22T04:52:04;101132.13;;;9.21;100.00
64933;BME280;51446;53.850;10.662;2023-04-22T04:54:31;101134.25;;;9.36;100.00
64933;BME280;51446;53.850;10.662;2023-04-22T04:56:56;101145.97;;;9.50;100.00
64933;BME280;51446;53.850;10.662;2023-04-22T04:59:22;101143.28;;;9.47;100.00
64933;BME280;51446;53.850;10.662;2023-04-22T05:01:47;101142.75;;;9.61;100.00
64933;BME280;51446;53.850;10.662;2023-04-22T05:04:13;101140.47;;;9.75;100.00
64933;BME280;51446;53.850;10.662;2023-04-22T05:06:38;101135.81;;;9.98;100.00
64933;BME280;51446;53.850;10.662;2023-04-22T05:09:03;101143.69;;;9.63;100.00
64933;BME280;51446;53.850;10.662;2023-04-22T05:11:29;101140.22;;;10.37;96.16
64933;BME280;51446;53.850;10.662;2023-04-22T05:13:55;101129.59;;;10.31;96.61
64933;BME280;51446;53.850;10.662;2023-04-22T05:16:20;101128.41;;;10.18;95.58
64933;BME280;51446;53.850;10.662;2023-04-22T05:18:45;101138.63;;;10.44;93.38
64933;BME280;51446;53.850;10.662;2023-04-22T05:21:11;101134.72;;;10.64;93.56
64933;BME280;51446;53.850;10.662;2023-04-22T05:23:36;101139.34;;;10.76;91.94
64933;BME280;51446;53.850;10.662;2023-04-22T05:26:01;101131.06;;;11.00;88.83
64933;BME280;51446;53.850;10.662;2023-04-22T05:28:27;101129.09;;;10.88;89.25
64933;BME280;51446;53.850;10.662;2023-04-22T05:30:52;101131.28;;;10.67;93.84
64933;BME280;51446;53.850;10.662;2023-04-22T05:33:17;101134.88;;;11.16;89.01
64933;BME280;51446;53.850;10.662;2023-04-22T05:35:42;101129.19;;;11.40;88.13
64933;BME280;51446;53.850;10.662;2023-04-22T05:38:08;101127.34;;;11.85;84.47
64933;BME280;51446;53.850;10.662;2023-04-22T05:40:33;101124.06;;;11.97;81.48
64933;BME280;51446;53.850;10.662;2023-04-22T05:42:58;101112.84;;;12.07;81.68
64933;BME280;51446;53.850;10.662;2023-04-22T05:45:24;101118.06;;;12.70;79.64
64933;BME280;51446;53.850;10.662;2023-04-22T05:47:49;101113.78;;;13.60;70.06
64933;BME280;51446;53.850;10.662;2023-04-22T05:50:14;101115.50;;;13.53;69.13
64933;BME280;51446;53.850;10.662;2023-04-22T05:52:39;101107.03;;;13.94;66.83
64933;BME280;51446;53.850;10.662;2023-04-22T05:55:05;101110.31;;;13.65;67.14
64933;BME280;51446;53.850;10.662;2023-04-22T05:57:31;101114.03;;;13.00;71.32
64933;BME280;51446;53.850;10.662;2023-04-22T05:59:57;101106.06;;;12.92;72.16
64933;BME280;51446;53.850;10.662;2023-04-22T06:02:23;101105.38;;;13.12;71.28
64933;BME280;51446;53.850;10.662;2023-04-22T06:04:48;101101.63;;;12.88;74.55
64933;BME280;51446;53.850;10.662;2023-04-22T06:07:13;101088.13;;;13.39;70.54
64933;BME280;51446;53.850;10.662;2023-04-22T06:09:39;101096.47;;;13.96;68.15
64933;BME280;51446;53.850;10.662;2023-04-22T06:12:04;101097.88;;;14.92;63.26
64933;BME280;51446;53.850;10.662;2023-04-22T06:14:30;101092.72;;;15.60;60.83
64933;BME280;51446;53.850;10.662;2023-04-22T06:16:55;101096.22;;;16.19;55.51
64933;BME280;51446;53.850;10.662;2023-04-22T06:19:20;101093.59;;;16.19;55.58
64933;BME280;51446;53.850;10.662;2023-04-22T06:21:46;101089.88;;;16.71;54.64
64933;BME280;51446;53.850;10.662;2023-04-22T06:24:11;101085.31;;;17.06;52.69
64933;BME280;51446;53.850;10.662;2023-04-22T06:26:37;101083.13;;;17.63;50.28
64933;BME280;51446;53.850;10.662;2023-04-22T06:29:02;101071.94;;;17.26;51.31
64933;BME280;51446;53.850;10.662;2023-04-22T06:31:30;101085.28;;;17.09;50.04
64933;BME280;51446;53.850;10.662;2023-04-22T06:33:55;101084.03;;;17.62;49.61
64933;BME280;51446;53.850;10.662;2023-04-22T06:36:20;101089.69;;;17.14;49.37
64933;BME280;51446;53.850;10.662;2023-04-22T06:38:45;101087.59;;;17.58;49.67
64933;BME280;51446;53.850;10.662;2023-04-22T06:41:11;101078.00;;;17.42;50.26
64933;BME280;51446;53.850;10.662;2023-04-22T06:43:36;101077.09;;;17.47;48.43
64933;BME280;51446;53.850;10.662;2023-04-22T06:46:01;101066.09;;;17.89;47.95
64933;BME280;51446;53.850;10.662;2023-04-22T06:48:27;101061.34;;;18.22;47.08
64933;BME280;51446;53.850;10.662;2023-04-22T06:50:52;101053.97;;;18.47;46.41
64933;BME280;51446;53.850;10.662;2023-04-22T06:53:17;101047.16;;;18.96;44.90
64933;BME280;51446;53.850;10.662;2023-04-22T06:55:42;101038.81;;;19.21;44.29
64933;BME280;51446;53.850;10.662;2023-04-22T06:58:08;101047.44;;;19.35;44.13
64933;BME280;51446;53.850;10.662;2023-04-22T07:00:33;101051.63;;;18.93;44.95
64933;BME280;51446;53.850;10.662;2023-04-22T07:02:58;101043.19;;;19.78;42.98
64933;BME280;51446;53.850;10.662;2023-04-22T07:05:23;101039.81;;;20.17;42.92
64933;BME280;51446;53.850;10.662;2023-04-22T07:07:49;101037.34;;;20.06;41.46
64933;BME280;51446;53.850;10.662;2023-04-22T07:10:14;101028.59;;;19.99;42.05
64933;BME280;51446;53.850;10.662;2023-04-22T07:12:39;101026.75;;;20.90;40.99
64933;BME280;51446;53.850;10.662;2023-04-22T07:15:05;101038.13;;;21.71;40.26
64933;BME280;51446;53.850;10.662;2023-04-22T07:17:31;101029.25;;;20.96;39.92
64933;BME280;51446;53.850;10.662;2023-04-22T07:19:56;101039.50;;;21.15;39.71
64933;BME280;51446;53.850;10.662;2023-04-22T07:22:21;101039.22;;;21.26;39.90
64933;BME280;51446;53.850;10.662;2023-04-22T07:24:47;101035.28;;;21.42;40.04
64933;BME280;51446;53.850;10.662;2023-04-22T07:27:12;101031.38;;;21.20;39.33
64933;BME280;51446;53.850;10.662;2023-04-22T07:29:37;101037.22;;;20.98;40.48
64933;BME280;51446;53.850;10.662;2023-04-22T07:32:03;101043.22;;;20.69;41.10
64933;BME280;51446;53.850;10.662;2023-04-22T07:34:28;101047.47;;;20.77;40.58
64933;BME280;51446;53.850;10.662;2023-04-22T07:36:53;101052.16;;;22.12;40.32
64933;BME280;51446;53.850;10.662;2023-04-22T07:39:19;101047.00;;;20.98;40.08
64933;BME280;51446;53.850;10.662;2023-04-22T07:41:44;101049.00;;;20.44;41.66
64933;BME280;51446;53.850;10.662;2023-04-22T07:44:09;101041.31;;;20.30;41.27
64933;BME280;51446;53.850;10.662;2023-04-22T07:46:37;101037.66;;;19.89;42.67
64933;BME280;51446;53.850;10.662;2023-04-22T07:49:02;101042.00;;;20.41;42.39
64933;BME280;51446;53.850;10.662;2023-04-22T07:51:27;101049.28;;;21.51;40.38
64933;BME280;51446;53.850;10.662;2023-04-22T07:53:53;101053.28;;;21.33;40.74
64933;BME280;51446;53.850;10.662;2023-04-22T07:56:18;101043.56;;;22.32;39.25
64933;BME280;51446;53.850;10.662;2023-04-22T07:58:43;101035.53;;;22.00;40.32
64933;BME280;51446;53.850;10.662;2023-04-22T08:01:08;101034.94;;;21.56;39.42
64933;BME280;51446;53.850;10.662;2023-04-22T08:03:33;101025.81;;;20.91;40.23
64933;BME280;51446;53.850;10.662;2023-04-22T08:05:59;101036.38;;;20.54;41.32
64933;BME280;51446;53.850;10.662;2023-04-22T08:08:25;101030.16;;;20.95;40.97
64933;BME280;51446;53.850;10.662;2023-04-22T08:10:50;101030.84;;;21.77;39.48
64933;BME280;51446;53.850;10.662;2023-04-22T08:13:15;101021.09;;;21.03;40.50
64933;BME280;51446;53.850;10.662;2023-04-22T08:15:41;101026.69;;;21.65;41.63
64933;BME280;51446;53.850;10.662;2023-04-22T08:18:06;101029.25;;;22.03;39.36
64933;BME280;51446;53.850;10.662;2023-04-22T08:20:31;101030.19;;;21.68;40.37
64933;BME280;51446;53.850;10.662;2023-04-22T08:22:57;101021.94;;;22.71;38.94
64933;BME280;51446;53.850;10.662;2023-04-22T08:25:24;101014.63;;;22.78;39.13
64933;BME280;51446;53.850;10.662;2023-04-22T08:27:50;101022.22;;;21.99;38.09
64933;BME280;51446;53.850;10.662;2023-04-22T08:30:15;101020.69;;;21.90;39.19
64933;BME280;51446;53.850;10.662;2023-04-22T08:32:41;101013.34;;;22.61;38.30
64933;BME280;51446;53.850;10.662;2023-04-22T08:35:06;101001.28;;;23.58;37.93
64933;BME280;51446;53.850;10.662;2023-04-22T08:37:33;100996.22;;;23.50;37.78
64933;BME280;51446;53.850;10.662;2023-04-22T08:39:58;101004.66;;;22.55;38.27
64933;BME280;51446;53.850;10.662;2023-04-22T08:42:24;101012.75;;;22.51;39.12
64933;BME280;51446;53.850;10.662;2023-04-22T08:44:51;100988.94;;;23.29;38.75
64933;BME280;51446;53.850;10.662;2023-04-22T08:47:18;100992.56;;;23.78;37.82
64933;BME280;51446;53.850;10.662;2023-04-22T08:49:44;100990.34;;;23.91;37.79
64933;BME280;51446;53.850;10.662;2023-04-22T08:52:10;100981.56;;;23.35;37.38
64933;BME280;51446;53.850;10.662;2023-04-22T08:54:36;100976.06;;;23.40;37.22
64933;BME280;51446;53.850;10.662;2023-04-22T08:57:02;100978.25;;;24.28;36.27
64933;BME280;51446;53.850;10.662;2023-04-22T08:59:30;100981.06;;;24.01;35.55
64933;BME280;51446;53.850;10.662;2023-04-22T09:01:56;100975.75;;;23.23;36.78
64933;BME280;51446;53.850;10.662;2023-04-22T09:04:22;100971.59;;;22.85;37.79
64933;BME280;51446;53.850;10.662;2023-04-22T09:06:47;100970.31;;;23.26;37.86
64933;BME280;51446;53.850;10.662;2023-04-22T09:09:12;100969.41;;;24.02;36.72
64933;BME280;51446;53.850;10.662;2023-04-22T09:11:38;100967.50;;;23.55;36.54
64933;BME280;51446;53.850;10.662;2023-04-22T09:14:04;100967.06;;;23.43;36.38
64933;BME280;51446;53.850;10.662;2023-04-22T09:16:30;100960.47;;;23.77;36.73
64933;BME280;51446;53.850;10.662;2023-04-22T09:18:57;100967.66;;;23.76;36.03
64933;BME280;51446;53.850;10.662;2023-04-22T09:21:26;100969.69;;;23.17;37.28
64933;BME280;51446;53.850;10.662;2023-04-22T09:23:53;100954.44;;;23.97;36.94
64933;BME280;51446;53.850;10.662;2023-04-22T09:26:20;100970.91;;;24.10;35.73
64933;BME280;51446;53.850;10.662;2023-04-22T09:28:49;100949.56;;;24.54;35.95
64933;BME280;51446;53.850;10.662;2023-04-22T09:31:14;100941.38;;;23.37;36.58
64933;BME280;51446;53.850;10.662;2023-04-22T09:33:40;100931.44;;;23.66;37.02
64933;BME280;51446;53.850;10.662;2023-04-22T09:36:08;100944.34;;;23.01;38.51
64933;BME280;51446;53.850;10.662;2023-04-22T09:38:34;100952.72;;;22.90;37.59
64933;BME280;51446;53.850;10.662;2023-04-22T09:40:59;100948.91;;;23.26;37.82
64933;BME280;51446;53.850;10.662;2023-04-22T09:43:25;100929.25;;;23.27;38.23
64933;BME280;51446;53.850;10.662;2023-04-22T09:45:51;100929.00;;;23.06;37.74
64933;BME280;51446;53.850;10.662;2023-04-22T09:48:18;100940.03;;;22.10;39.09
64933;BME280;51446;53.850;10.662;2023-04-22T09:50:45;100940.06;;;23.24;39.33
64933;BME280;51446;53.850;10.662;2023-04-22T09:53:14;100938.84;;;23.83;36.94
64933;BME280;51446;53.850;10.662;2023-04-22T09:55:42;100928.06;;;24.10;37.19
64933;BME280;51446;53.850;10.662;2023-04-22T09:58:09;100941.00;;;22.67;37.25
64933;BME280;51446;53.850;10.662;2023-04-22T10:00:44;100928.16;;;22.50;37.85
64933;BME280;51446;53.850;10.662;2023-04-22T10:03:11;100929.94;;;23.05;38.23
64933;BME280;51446;53.850;10.662;2023-04-22T10:05:36;100915.50;;;22.84;38.45
64933;BME280;51446;53.850;10.662;2023-04-22T10:08:03;100926.56;;;22.73;38.22
64933;BME280;51446;53.850;10.662;2023-04-22T10:10:29;100937.38;;;23.49;37.43
64933;BME280;51446;53.850;10.662;2023-04-22T10:12:55;100917.22;;;23.64;38.04
64933;BME280;51446;53.850;10.662;2023-04-22T10:15:20;100931.59;;;22.82;38.20
64933;BME280;51446;53.850;10.662;2023-04-22T10:17:46;100921.69;;;22.84;38.30
64933;BME280;51446;53.850;10.662;2023-04-22T10:20:15;100916.59;;;23.05;38.36
64933;BME280;51446;53.850;10.662;2023-04-22T10:22:42;100919.81;;;23.16;37.39
64933;BME280;51446;53.850;10.662;2023-04-22T10:25:12;100916.13;;;23.19;37.29
64933;BME280;51446;53.850;10.662;2023-04-22T10:27:38;100901.19;;;23.38;38.13
64933;BME280;51446;53.850;10.662;2023-04-22T10:30:03;100908.88;;;23.73;37.74
64933;BME280;51446;53.850;10.662;2023-04-22T10:32:29;100905.75;;;24.77;36.28
64933;BME280;51446;53.850;10.662;2023-04-22T10:35:09;100921.03;;;25.40;35.23
64933;BME280;51446;53.850;10.662;2023-04-22T10:37:35;100892.78;;;25.31;35.96
64933;BME280;51446;53.850;10.662;2023-04-22T10:40:18;100897.44;;;23.93;36.87
64933;BME280;51446;53.850;10.662;2023-04-22T10:42:52;100892.47;;;24.52;37.00
64933;BME280;51446;53.850;10.662;2023-04-22T10:45:17;100888.81;;;24.76;36.98
64933;BME280;51446;53.850;10.662;2023-04-22T10:47:43;100887.16;;;24.50;35.69
64933;BME280;51446;53.850;10.662;2023-04-22T10:52:40;100870.47;;;25.08;35.50
64933;BME280;51446;53.850;10.662;2023-04-22T10:55:05;100883.06;;;23.96;36.56
64933;BME280;51446;53.850;10.662;2023-04-22T10:57:34;100881.66;;;23.84;37.45
64933;BME280;51446;53.850;10.662;2023-04-22T11:00:17;100861.41;;;23.77;37.12
64933;BME280;51446;53.850;10.662;2023-04-22T11:02:47;100868.00;;;24.15;37.36
64933;BME280;51446;53.850;10.662;2023-04-22T11:07:43;100853.09;;;23.84;37.27
64933;BME280;51446;53.850;10.662;2023-04-22T11:10:08;100847.22;;;23.98;36.61
64933;BME280;51446;53.850;10.662;2023-04-22T11:15:10;100845.22;;;24.49;35.79
64933;BME280;51446;53.850;10.662;2023-04-22T11:17:37;100835.75;;;24.40;36.07
64933;BME280;51446;53.850;10.662;2023-04-22T11:20:03;100832.72;;;24.48;36.50
64933;BME280;51446;53.850;10.662;2023-04-22T11:22:34;100829.81;;;24.10;37.33
64933;BME280;51446;53.850;10.662;2023-04-22T11:25:00;100828.34;;;24.46;36.88
64933;BME280;51446;53.850;10.662;2023-04-22T11:27:26;100835.22;;;25.16;36.09
64933;BME280;51446;53.850;10.662;2023-04-22T11:30:07;100833.53;;;24.06;37.66
64933;BME280;51446;53.850;10.662;2023-04-22T11:32:38;100828.50;;;24.42;37.63
64933;BME280;51446;53.850;10.662;2023-04-22T11:35:11;100816.66;;;24.26;37.10
64933;BME280;51446;53.850;10.662;2023-04-22T11:37:47;100815.72;;;24.27;37.43
64933;BME280;51446;53.850;10.662;2023-04-22T11:40:21;100815.78;;;24.25;37.82
64933;BME280;51446;53.850;10.662;2023-04-22T11:42:49;100806.06;;;24.01;37.58
64933;BME280;51446;53.850;10.662;2023-04-22T11:45:14;100802.69;;;24.40;37.57
64933;BME280;51446;53.850;10.662;2023-04-22T11:47:40;100803.41;;;24.88;37.09
64933;BME280;51446;53.850;10.662;2023-04-22T11:50:08;100809.78;;;24.63;37.01
64933;BME280;51446;53.850;10.662;2023-04-22T11:52:54;100806.44;;;24.14;37.57
64933;BME280;51446;53.850;10.662;2023-04-22T11:58:08;100807.94;;;24.65;38.49
64933;BME280;51446;53.850;10.662;2023-04-22T12:00:40;100805.13;;;24.24;37.34
64933;BME280;51446;53.850;10.662;2023-04-22T12:03:14;100794.88;;;23.89;37.48
64933;BME280;51446;53.850;10.662;2023-04-22T12:05:43;100790.34;;;23.68;38.41
64933;BME280;51446;53.850;10.662;2023-04-22T12:08:14;100781.00;;;24.24;39.40
64933;BME280;51446;53.850;10.662;2023-04-22T12:13:07;100772.66;;;24.10;39.27
64933;BME280;51446;53.850;10.662;2023-04-22T12:15:40;100772.16;;;24.22;39.91
64933;BME280;51446;53.850;10.662;2023-04-22T12:18:05;100774.91;;;23.98;38.69
64933;BME280;51446;53.850;10.662;2023-04-22T12:20:35;100771.78;;;23.63;39.26
64933;BME280;51446;53.850;10.662;2023-04-22T12:23:00;100768.00;;;23.69;39.62
64933;BME280;51446;53.850;10.662;2023-04-22T12:25:26;100766.13;;;24.17;39.63
64933;BME280;51446;53.850;10.662;2023-04-22T12:27:51;100769.13;;;24.09;39.86
64933;BME280;51446;53.850;10.662;2023-04-22T12:30:16;100771.47;;;24.39;38.79
64933;BME280;51446;53.850;10.662;2023-04-22T12:32:42;100770.97;;;24.07;39.86
64933;BME280;51446;53.850;10.662;2023-04-22T12:35:07;100766.03;;;23.50;40.07
64933;BME280;51446;53.850;10.662;2023-04-22T12:37:33;100758.16;;;23.22;39.55
64933;BME280;51446;53.850;10.662;2023-04-22T12:39:58;100749.06;;;23.02;40.22
64933;BME280;51446;53.850;10.662;2023-04-22T12:42:23;100745.97;;;23.38;42.17
64933;BME280;51446;53.850;10.662;2023-04-22T12:44:49;100753.75;;;23.21;41.56
64933;BME280;51446;53.850;10.662;2023-04-22T12:47:14;100747.38;;;23.71;41.80